Time;durP1;ratioP1;P1;durP2;ratioP2;P2;SDS_P1;SDS_P2;PMS_P1;PMS_P2;Temp;Humidity;BMP_temperature;BMP_pressure;BME280_temperature;BME280_humidity;BME280_pressure;Samples;Min_cycle;Max_cycle;Signal;HPM_P1;HPM_P2
2021/12/07 00:01:32;;;;;;;;;;;4.50;99.90;;;;;;7347608;19;114904;-82
2021/12/07 00:03:59;;;;;;;;;;;4.60;99.90;;;;;;7344428;19;111196;-81
2021/12/07 00:06:27;;;;;;;;;;;4.60;99.90;;;;;;7344112;19;111394;-79
2021/12/07 00:08:56;;;;;;;;;;;4.60;99.90;;;;;;7353766;19;112032;-78
2021/12/07 00:11:24;;;;;;;;;;;4.60;99.90;;;;;;7343440;19;109459;-79
2021/12/07 00:13:51;;;;;;;;;;;4.70;99.90;;;;;;7345103;19;111701;-81
2021/12/07 00:16:19;;;;;;;;;;;4.70;99.90;;;;;;7342481;19;109472;-78
2021/12/07 00:18:46;;;;;;;;;;;4.70;99.90;;;;;;7348657;19;110705;-78
2021/12/07 00:21:16;;;;;;;;;;;4.70;99.90;;;;;;7342277;19;111826;-79
2021/12/07 00:23:43;;;;;;;;;;;4.70;99.90;;;;;;7342283;19;114034;-78
2021/12/07 00:26:23;;;;;;;;;;;4.70;99.90;;;;;;7347271;19;110443;-82
2021/12/07 00:28:50;;;;;;;;;;;4.70;99.90;;;;;;7350878;19;112375;-78
2021/12/07 00:31:27;;;;;;;;;;;4.70;99.90;;;;;;7347659;19;111207;-78
2021/12/07 00:36:34;;;;;;;;;;;4.70;99.90;;;;;;7348167;19;109428;-78
2021/12/07 00:39:01;;;;;;;;;;;4.70;99.90;;;;;;7343088;19;112993;-79
2021/12/07 00:41:28;;;;;;;;;;;4.70;99.90;;;;;;7343794;19;111479;-78
2021/12/07 00:43:56;;;;;;;;;;;4.80;99.90;;;;;;7345003;19;109525;-79
2021/12/07 00:46:24;;;;;;;;;;;4.80;99.90;;;;;;7344705;19;110664;-78
2021/12/07 00:48:51;;;;;;;;;;;4.80;99.90;;;;;;7341310;19;114736;-80
2021/12/07 00:51:18;;;;;;;;;;;4.80;99.90;;;;;;7350364;19;109715;-81
2021/12/07 00:53:45;;;;;;;;;;;4.80;99.90;;;;;;7345086;19;111914;-78
2021/12/07 00:56:12;;;;;;;;;;;4.90;99.90;;;;;;7344004;19;109455;-78
2021/12/07 00:58:38;;;;;;;;;;;4.90;99.90;;;;;;7347037;19;110635;-79
2021/12/07 01:01:08;;;;;;;;;;;4.90;99.90;;;;;;7341459;19;111793;-82
2021/12/07 01:03:36;;;;;;;;;;;4.90;99.90;;;;;;7345771;19;109618;-78
2021/12/07 01:06:16;;;;;;;;;;;5.00;99.90;;;;;;7343973;19;113149;-78
2021/12/07 01:24:56;;;;;;;;;;;5.20;99.90;;;;;;7342654;19;109423;-76
2021/12/07 01:27:23;;;;;;;;;;;5.20;99.90;;;;;;7343714;19;110556;-77
2021/12/07 01:30:03;;;;;;;;;;;5.30;99.90;;;;;;7345934;19;111706;-76
2021/12/07 01:38:27;;;;;;;;;;;5.40;99.90;;;;;;7353200;19;112079;-78
2021/12/07 01:41:47;;;;;;;;;;;5.40;99.90;;;;;;7352788;19;111122;-77
2021/12/07 01:59:48;;;;;;;;;;;5.40;99.90;;;;;;7351029;19;112138;-76
2021/12/07 02:02:17;;;;;;;;;;;5.40;99.90;;;;;;7355397;19;110094;-77
2021/12/07 02:04:44;;;;;;;;;;;5.30;99.90;;;;;;7348050;19;111657;-77
2021/12/07 02:07:12;;;;;;;;;;;5.30;99.90;;;;;;7352325;19;109865;-76
2021/12/07 02:09:42;;;;;;;;;;;5.40;99.90;;;;;;7349131;19;110844;-77
2021/12/07 02:12:11;;;;;;;;;;;5.40;99.90;;;;;;7352437;19;111863;-78
2021/12/07 02:14:39;;;;;;;;;;;5.40;99.90;;;;;;7347621;19;109781;-77
2021/12/07 02:17:07;;;;;;;;;;;5.40;99.90;;;;;;7351606;19;111006;-77
2021/12/07 02:19:34;;;;;;;;;;;5.40;99.90;;;;;;7346649;19;111986;-78
2021/12/07 02:22:02;;;;;;;;;;;5.40;99.90;;;;;;7349124;19;109891;-76
2021/12/07 02:24:30;;;;;;;;;;;5.40;99.90;;;;;;7354733;19;110686;-78
2021/12/07 02:26:57;;;;;;;;;;;5.30;99.90;;;;;;7348370;19;109620;-77
2021/12/07 02:29:24;;;;;;;;;;;5.30;99.90;;;;;;7351200;19;111400;-78
2021/12/07 02:31:52;;;;;;;;;;;5.30;99.90;;;;;;7347458;19;111953;-78
2021/12/07 02:34:20;;;;;;;;;;;5.30;99.90;;;;;;7349176;19;109358;-78
2021/12/07 02:36:47;;;;;;;;;;;5.30;99.90;;;;;;7347222;19;111612;-77
2021/12/07 02:39:14;;;;;;;;;;;5.30;99.90;;;;;;7351027;19;112758;-77
2021/12/07 02:41:41;;;;;;;;;;;5.30;99.90;;;;;;7347985;19;111041;-77
2021/12/07 02:44:09;;;;;;;;;;;5.30;99.90;;;;;;7356394;19;111409;-77
2021/12/07 02:46:37;;;;;;;;;;;5.20;99.90;;;;;;7343549;19;110561;-77
2021/12/07 02:49:04;;;;;;;;;;;5.20;99.90;;;;;;7350225;19;110601;-76
2021/12/07 02:51:31;;;;;;;;;;;5.20;99.90;;;;;;7347247;19;111720;-77
2021/12/07 02:53:58;;;;;;;;;;;5.20;99.90;;;;;;7349424;19;110949;-77
2021/12/07 02:56:25;;;;;;;;;;;5.20;99.90;;;;;;7346479;19;110888;-77
2021/12/07 02:58:58;;;;;;;;;;;5.20;99.90;;;;;;7347633;19;111530;-77
2021/12/07 03:01:30;;;;;;;;;;;5.20;99.90;;;;;;7351318;19;111441;-76
2021/12/07 03:04:04;;;;;;;;;;;5.20;99.90;;;;;;7346940;19;111053;-77
2021/12/07 03:09:42;;;;;;;;;;;5.20;99.90;;;;;;7346516;19;111083;-76
2021/12/07 03:28:19;;;;;;;;;;;5.30;99.90;;;;;;7347759;19;112299;-77
2021/12/07 03:30:46;;;;;;;;;;;5.30;99.90;;;;;;7351380;19;109912;-77
2021/12/07 03:33:13;;;;;;;;;;;5.30;99.90;;;;;;7348394;19;111729;-77
2021/12/07 03:35:40;;;;;;;;;;;5.30;99.90;;;;;;7344807;19;109403;-77
2021/12/07 03:38:08;;;;;;;;;;;5.30;99.90;;;;;;7349086;19;110705;-77
2021/12/07 03:40:35;;;;;;;;;;;5.20;99.90;;;;;;7343197;19;111707;-77
2021/12/07 03:43:03;;;;;;;;;;;5.20;99.90;;;;;;7348856;19;109740;-76
2021/12/07 03:45:32;;;;;;;;;;;5.20;99.90;;;;;;7346254;19;110842;-76
2021/12/07 03:48:00;;;;;;;;;;;5.20;99.90;;;;;;7347597;19;112329;-77
2021/12/07 03:50:27;;;;;;;;;;;5.20;99.90;;;;;;7346010;19;109329;-76
2021/12/07 03:52:54;;;;;;;;;;;5.20;99.90;;;;;;7352066;19;110514;-77
2021/12/07 03:55:21;;;;;;;;;;;5.10;99.90;;;;;;7346123;19;109830;-76
2021/12/07 03:57:48;;;;;;;;;;;5.10;99.90;;;;;;7345764;19;110645;-77
2021/12/07 04:00:17;;;;;;;;;;;5.00;99.90;;;;;;7346199;19;112821;-77
2021/12/07 04:02:44;;;;;;;;;;;5.00;99.90;;;;;;7345234;19;109577;-77
2021/12/07 04:05:15;;;;;;;;;;;5.00;99.90;;;;;;7348282;19;110621;-76
2021/12/07 04:07:42;;;;;;;;;;;5.00;99.90;;;;;;7345416;19;112481;-77
2021/12/07 04:10:10;;;;;;;;;;;5.00;99.90;;;;;;7347859;19;109408;-77
2021/12/07 04:12:37;;;;;;;;;;;5.00;99.90;;;;;;7345726;19;112186;-77
2021/12/07 04:15:05;;;;;;;;;;;5.00;99.90;;;;;;7351103;19;111669;-78
2021/12/07 04:17:32;;;;;;;;;;;4.90;99.90;;;;;;7343886;19;110526;-78
2021/12/07 04:19:59;;;;;;;;;;;4.90;99.90;;;;;;7345673;19;111774;-78
2021/12/07 04:22:26;;;;;;;;;;;4.90;99.90;;;;;;7347254;19;109824;-77
2021/12/07 04:24:52;;;;;;;;;;;4.80;99.90;;;;;;7345845;19;110567;-77
2021/12/07 04:27:24;;;;;;;;;;;4.80;99.90;;;;;;7346377;19;111826;-77
2021/12/07 04:29:51;;;;;;;;;;;4.80;99.90;;;;;;7345010;19;109831;-77
2021/12/07 04:32:17;;;;;;;;;;;4.80;99.90;;;;;;7347023;19;110888;-76
2021/12/07 04:34:44;;;;;;;;;;;4.70;99.90;;;;;;7343871;19;111714;-77
2021/12/07 04:37:11;;;;;;;;;;;4.70;99.90;;;;;;7352680;19;109149;-78
2021/12/07 04:39:38;;;;;;;;;;;4.70;99.90;;;;;;7342856;19;111682;-77
2021/12/07 04:42:05;;;;;;;;;;;4.70;99.90;;;;;;7345764;19;110378;-78
2021/12/07 04:44:38;;;;;;;;;;;4.70;99.90;;;;;;7346824;19;110659;-77
2021/12/07 04:47:12;;;;;;;;;;;4.60;99.90;;;;;;7343709;19;111748;-76
2021/12/07 04:58:09;;;;;;;;;;;4.60;99.90;;;;;;7350745;19;109495;-77
2021/12/07 05:00:36;;;;;;;;;;;4.60;99.90;;;;;;7345626;19;111987;-77
2021/12/07 05:03:08;;;;;;;;;;;4.60;99.90;;;;;;7347337;19;110885;-77
2021/12/07 05:05:41;;;;;;;;;;;4.50;99.90;;;;;;7345366;19;110998;-77
2021/12/07 05:08:11;;;;;;;;;;;4.50;99.90;;;;;;7346961;19;112442;-76
2021/12/07 05:39:55;;;;;;;;;;;4.20;99.90;;;;;;7342215;19;110950;-77
2021/12/07 05:42:23;;;;;;;;;;;4.20;99.90;;;;;;7343209;19;110766;-77
2021/12/07 05:44:51;;;;;;;;;;;4.20;99.90;;;;;;7349296;19;111760;-77
2021/12/07 05:47:18;;;;;;;;;;;4.20;99.90;;;;;;7339777;19;111087;-77
2021/12/07 05:49:45;;;;;;;;;;;4.20;99.90;;;;;;7344690;19;112437;-77
2021/12/07 05:52:12;;;;;;;;;;;4.20;99.90;;;;;;7339603;19;109697;-77
2021/12/07 05:54:39;;;;;;;;;;;4.20;99.90;;;;;;7343606;19;110705;-78
2021/12/07 05:57:06;;;;;;;;;;;4.10;99.90;;;;;;7341128;19;111856;-77
2021/12/07 05:59:33;;;;;;;;;;;4.20;99.90;;;;;;7345697;19;109273;-77
2021/12/07 06:02:00;;;;;;;;;;;4.10;99.90;;;;;;7336863;19;111107;-76
2021/12/07 06:04:30;;;;;;;;;;;4.10;99.90;;;;;;7341729;19;111776;-76
2021/12/07 06:06:57;;;;;;;;;;;4.10;99.90;;;;;;7340834;19;109579;-76
2021/12/07 06:09:25;;;;;;;;;;;4.00;99.90;;;;;;7328264;19;111750;-76
2021/12/07 06:11:53;;;;;;;;;;;4.10;99.90;;;;;;7335613;19;109662;-77
2021/12/07 06:14:21;;;;;;;;;;;4.00;99.90;;;;;;7337427;19;110833;-76
2021/12/07 06:16:48;;;;;;;;;;;4.00;99.90;;;;;;7342661;19;111943;-76
2021/12/07 06:19:15;;;;;;;;;;;4.00;99.90;;;;;;7342618;19;109490;-77
2021/12/07 06:21:42;;;;;;;;;;;4.00;99.90;;;;;;7349334;19;110779;-76
2021/12/07 06:24:09;;;;;;;;;;;4.00;99.90;;;;;;7347985;19;111848;-77
2021/12/07 06:26:36;;;;;;;;;;;3.90;99.90;;;;;;7350798;19;109597;-77
2021/12/07 06:29:03;;;;;;;;;;;3.90;99.90;;;;;;7353192;19;111418;-76
2021/12/07 06:31:30;;;;;;;;;;;3.90;99.90;;;;;;7351818;19;109442;-77
2021/12/07 06:33:57;;;;;;;;;;;3.90;99.90;;;;;;7347947;19;110953;-77
2021/12/07 06:36:24;;;;;;;;;;;3.90;99.90;;;;;;7350099;19;111800;-77
2021/12/07 06:38:51;;;;;;;;;;;3.90;99.90;;;;;;7346618;19;110067;-78
2021/12/07 06:41:18;;;;;;;;;;;3.90;99.90;;;;;;7345622;19;110755;-76
2021/12/07 06:43:45;;;;;;;;;;;3.90;99.90;;;;;;7345890;19;111808;-77
2021/12/07 06:46:12;;;;;;;;;;;3.90;99.90;;;;;;7348004;19;110648;-77
2021/12/07 06:48:39;;;;;;;;;;;3.90;99.90;;;;;;7354315;19;110513;-79
2021/12/07 06:51:06;;;;;;;;;;;3.80;99.90;;;;;;7347779;19;109369;-81
2021/12/07 06:53:36;;;;;;;;;;;3.90;99.90;;;;;;7350897;19;111838;-79
2021/12/07 06:56:04;;;;;;;;;;;3.80;99.90;;;;;;7344197;19;111716;-79
2021/12/07 06:58:31;;;;;;;;;;;3.80;99.90;;;;;;7350977;19;109304;-79
2021/12/07 07:00:58;;;;;;;;;;;3.80;99.90;;;;;;7346876;19;111102;-79
2021/12/07 07:03:25;;;;;;;;;;;3.90;99.90;;;;;;7351106;19;111837;-79
2021/12/07 07:05:53;;;;;;;;;;;3.90;99.90;;;;;;7347234;19;111013;-79
2021/12/07 07:08:20;;;;;;;;;;;3.90;99.90;;;;;;7350573;19;110642;-79
2021/12/07 07:10:46;;;;;;;;;;;3.90;99.90;;;;;;7352537;19;111996;-79
2021/12/07 07:13:14;;;;;;;;;;;3.90;99.90;;;;;;7348444;19;111141;-79
2021/12/07 07:15:41;;;;;;;;;;;3.90;99.90;;;;;;7346383;19;112054;-79
2021/12/07 07:18:08;;;;;;;;;;;3.90;99.90;;;;;;7347614;19;109330;-79
2021/12/07 07:20:35;;;;;;;;;;;3.90;99.90;;;;;;7348926;19;110972;-79
2021/12/07 07:23:03;;;;;;;;;;;3.90;99.90;;;;;;7342185;19;111847;-78
2021/12/07 07:25:29;;;;;;;;;;;3.90;99.90;;;;;;7349891;19;109585;-78
2021/12/07 07:27:57;;;;;;;;;;;3.90;99.90;;;;;;7343553;19;110733;-78
2021/12/07 07:30:24;;;;;;;;;;;3.90;99.90;;;;;;7349193;19;111817;-79
2021/12/07 07:32:50;;;;;;;;;;;3.90;99.90;;;;;;7349816;19;109398;-78
2021/12/07 07:35:18;;;;;;;;;;;3.90;99.90;;;;;;7347600;19;111572;-80
2021/12/07 07:37:45;;;;;;;;;;;3.90;99.90;;;;;;7345542;19;112760;-79
2021/12/07 07:40:17;;;;;;;;;;;3.90;99.90;;;;;;7348615;19;110678;-80
2021/12/07 07:42:44;;;;;;;;;;;3.80;99.90;;;;;;7344789;19;111708;-80
2021/12/07 07:45:11;;;;;;;;;;;3.80;99.90;;;;;;7348400;19;109986;-79
2021/12/07 07:47:38;;;;;;;;;;;3.80;99.90;;;;;;7343688;19;110730;-80
2021/12/07 07:50:06;;;;;;;;;;;3.80;99.90;;;;;;7347229;19;111774;-81
2021/12/07 07:52:33;;;;;;;;;;;3.80;99.90;;;;;;7348530;19;110299;-79
2021/12/07 07:55:00;;;;;;;;;;;3.80;99.90;;;;;;7351505;19;110769;-79
2021/12/07 07:57:28;;;;;;;;;;;3.90;99.90;;;;;;7348438;19;109752;-81
2021/12/07 07:59:54;;;;;;;;;;;3.90;99.90;;;;;;7346169;19;110682;-79
2021/12/07 08:02:21;;;;;;;;;;;3.90;99.90;;;;;;7346681;19;112389;-79
2021/12/07 08:04:48;;;;;;;;;;;3.90;99.90;;;;;;7345155;19;109257;-80
2021/12/07 08:07:15;;;;;;;;;;;3.90;99.90;;;;;;7348598;19;111576;-79
2021/12/07 08:09:42;;;;;;;;;;;3.90;99.90;;;;;;7343971;19;111834;-80
2021/12/07 08:12:09;;;;;;;;;;;4.00;99.90;;;;;;7347683;19;110989;-80
2021/12/07 08:14:36;;;;;;;;;;;4.00;99.90;;;;;;7344354;19;111049;-80
2021/12/07 08:17:04;;;;;;;;;;;4.00;99.90;;;;;;7349258;19;112001;-79
2021/12/07 08:19:32;;;;;;;;;;;4.00;99.90;;;;;;7341961;19;111793;-79
2021/12/07 08:21:58;;;;;;;;;;;4.00;99.90;;;;;;7347493;19;112093;-80
2021/12/07 08:24:25;;;;;;;;;;;4.00;99.90;;;;;;7346221;19;109768;-79
2021/12/07 08:26:52;;;;;;;;;;;4.00;99.90;;;;;;7347085;19;111475;-81
2021/12/07 08:29:19;;;;;;;;;;;4.10;99.90;;;;;;7346950;19;111771;-79
2021/12/07 08:31:46;;;;;;;;;;;4.10;99.90;;;;;;7346532;19;109281;-78
2021/12/07 08:34:13;;;;;;;;;;;4.10;99.90;;;;;;7348079;19;110537;-80
2021/12/07 08:36:40;;;;;;;;;;;4.10;99.90;;;;;;7345126;19;111680;-79
2021/12/07 08:39:07;;;;;;;;;;;4.10;99.90;;;;;;7351831;19;109286;-79
2021/12/07 08:41:34;;;;;;;;;;;4.20;99.90;;;;;;7344198;19;111772;-79
2021/12/07 08:44:01;;;;;;;;;;;4.10;99.90;;;;;;7346943;19;110015;-80
2021/12/07 08:46:27;;;;;;;;;;;4.10;99.90;;;;;;7345138;19;111569;-80
2021/12/07 08:48:54;;;;;;;;;;;4.20;99.90;;;;;;7345754;19;111674;-78
2021/12/07 08:51:21;;;;;;;;;;;4.20;99.90;;;;;;7343952;19;110600;-80
2021/12/07 08:53:55;;;;;;;;;;;4.30;99.90;;;;;;7344751;19;113885;-79
2021/12/07 09:01:53;;;;;;;;;;;4.30;99.90;;;;;;7346996;19;111625;-80
2021/12/07 09:04:21;;;;;;;;;;;4.30;99.90;;;;;;7341818;19;109311;-79
2021/12/07 09:06:48;;;;;;;;;;;4.40;99.90;;;;;;7346723;19;110940;-78
2021/12/07 09:09:15;;;;;;;;;;;4.40;99.90;;;;;;7344061;19;111676;-81
2021/12/07 09:11:42;;;;;;;;;;;4.50;99.90;;;;;;7344568;19;111159;-78
2021/12/07 09:14:11;;;;;;;;;;;4.50;99.90;;;;;;7342104;19;110852;-78
2021/12/07 09:16:38;;;;;;;;;;;4.50;99.90;;;;;;7345401;19;111804;-78
2021/12/07 09:19:05;;;;;;;;;;;4.60;99.90;;;;;;7346107;19;109492;-80
2021/12/07 09:21:32;;;;;;;;;;;4.70;99.90;;;;;;7350104;19;110809;-78
2021/12/07 09:23:59;;;;;;;;;;;4.70;99.90;;;;;;7343827;19;109811;-78
2021/12/07 09:26:26;;;;;;;;;;;4.70;99.90;;;;;;7341925;19;110587;-79
2021/12/07 09:28:53;;;;;;;;;;;4.70;99.90;;;;;;7346088;19;112427;-79
2021/12/07 09:31:22;;;;;;;;;;;4.80;99.90;;;;;;7344511;19;109414;-80
2021/12/07 09:33:49;;;;;;;;;;;4.90;99.90;;;;;;7344409;19;110701;-80
2021/12/07 09:36:16;;;;;;;;;;;5.00;99.90;;;;;;7342757;19;111969;-80
2021/12/07 09:38:43;;;;;;;;;;;5.00;99.90;;;;;;7347722;19;110116;-78
2021/12/07 09:41:12;;;;;;;;;;;5.00;99.90;;;;;;7343842;19;110645;-78
2021/12/07 09:43:39;;;;;;;;;;;5.10;99.90;;;;;;7350986;19;111890;-78
2021/12/07 09:46:08;;;;;;;;;;;5.10;99.90;;;;;;7338845;19;110982;-78
2021/12/07 09:48:35;;;;;;;;;;;5.10;99.90;;;;;;7344273;19;111763;-80
2021/12/07 09:51:06;;;;;;;;;;;5.20;99.90;;;;;;7341138;19;109769;-80
2021/12/07 09:53:33;;;;;;;;;;;5.30;99.90;;;;;;7342559;19;110601;-78
2021/12/07 09:56:01;;;;;;;;;;;5.30;99.90;;;;;;7347541;19;112011;-78
2021/12/07 09:58:27;;;;;;;;;;;5.40;99.90;;;;;;7351536;19;109534;-78
2021/12/07 10:00:55;;;;;;;;;;;5.40;99.90;;;;;;7352410;19;112180;-78
2021/12/07 10:03:23;;;;;;;;;;;5.50;99.90;;;;;;7348857;19;112316;-78
2021/12/07 10:05:51;;;;;;;;;;;5.60;99.90;;;;;;7358922;19;109517;-80
2021/12/07 10:08:18;;;;;;;;;;;5.60;99.90;;;;;;7349622;19;111916;-77
2021/12/07 10:10:47;;;;;;;;;;;5.70;99.90;;;;;;7352258;19;109772;-78
2021/12/07 10:13:15;;;;;;;;;;;5.80;99.90;;;;;;7349636;19;111044;-80
2021/12/07 10:15:42;;;;;;;;;;;5.80;99.90;;;;;;7350080;19;112484;-78
2021/12/07 10:18:12;;;;;;;;;;;5.80;99.90;;;;;;7349572;19;109161;-77
2021/12/07 10:21:00;;;;;;;;;;;6.00;99.90;;;;;;7349148;19;113228;-80
2021/12/07 10:23:36;;;;;;;;;;;6.00;99.90;;;;;;7351128;19;112579;-80
2021/12/07 10:26:11;;;;;;;;;;;6.00;99.90;;;;;;7349290;19;109344;-80
2021/12/07 10:28:40;;;;;;;;;;;6.10;99.90;;;;;;7356883;19;110689;-78
2021/12/07 10:31:07;;;;;;;;;;;6.20;99.90;;;;;;7348896;19;109302;-79
2021/12/07 10:33:35;;;;;;;;;;;6.20;99.90;;;;;;7350744;19;110677;-77
2021/12/07 10:36:07;;;;;;;;;;;6.20;99.90;;;;;;7347604;19;111724;-77
2021/12/07 10:38:34;;;;;;;;;;;6.30;99.90;;;;;;7350974;19;109319;-80
2021/12/07 10:41:03;;;;;;;;;;;6.40;99.90;;;;;;7350206;19;110669;-77
2021/12/07 10:43:41;;;;;;;;;;;6.40;99.90;;;;;;7344701;19;111559;-79
2021/12/07 10:46:27;;;;;;;;;;;6.40;99.90;;;;;;7353422;19;109420;-78
2021/12/07 10:49:12;;;;;;;;;;;6.50;99.90;;;;;;7343135;19;110591;-81
2021/12/07 10:51:41;;;;;;;;;;;6.60;99.90;;;;;;7354905;19;112013;-77
2021/12/07 10:54:08;;;;;;;;;;;6.70;99.90;;;;;;7344585;19;110678;-77
2021/12/07 10:56:36;;;;;;;;;;;6.70;99.90;;;;;;7348691;19;111666;-80
2021/12/07 10:59:05;;;;;;;;;;;6.80;99.90;;;;;;7348409;19;109680;-77
2021/12/07 11:01:33;;;;;;;;;;;6.80;99.90;;;;;;7345326;19;111581;-78
2021/12/07 11:04:33;;;;;;;;;;;6.90;99.90;;;;;;7348336;19;111991;-79
2021/12/07 11:07:03;;;;;;;;;;;6.90;99.90;;;;;;7341512;19;111272;-77
2021/12/07 11:09:35;;;;;;;;;;;7.00;99.90;;;;;;7348030;19;110730;-77
2021/12/07 11:12:09;;;;;;;;;;;7.10;99.90;;;;;;7351664;19;111717;-78
2021/12/07 11:14:41;;;;;;;;;;;7.10;99.90;;;;;;7347629;19;110734;-78
2021/12/07 11:17:08;;;;;;;;;;;7.20;99.90;;;;;;7346421;19;111809;-79
2021/12/07 11:19:36;;;;;;;;;;;7.30;99.90;;;;;;7348476;19;109552;-76
2021/12/07 11:22:02;;;;;;;;;;;7.40;99.90;;;;;;7350005;19;111030;-78
2021/12/07 11:24:34;;;;;;;;;;;7.40;99.90;;;;;;7347485;19;111822;-78
2021/12/07 11:30:00;;;;;;;;;;;7.50;99.90;;;;;;7346306;19;110622;-79
2021/12/07 11:32:27;;;;;;;;;;;7.60;99.90;;;;;;7349305;19;111851;-77
2021/12/07 11:34:54;;;;;;;;;;;7.70;99.90;;;;;;7352703;19;109428;-77
2021/12/07 11:37:23;;;;;;;;;;;7.70;99.90;;;;;;7348143;19;112453;-79
2021/12/07 11:39:52;;;;;;;;;;;7.80;99.90;;;;;;7348823;19;109373;-77
2021/12/07 11:42:23;;;;;;;;;;;7.90;99.90;;;;;;7348194;19;110643;-80
2021/12/07 11:45:09;;;;;;;;;;;7.90;99.90;;;;;;7349358;19;111624;-77
2021/12/07 11:47:39;;;;;;;;;;;7.90;99.90;;;;;;7345648;19;111095;-80
2021/12/07 11:50:17;;;;;;;;;;;8.00;99.90;;;;;;7350687;19;110757;-78
2021/12/07 11:52:45;;;;;;;;;;;8.00;99.90;;;;;;7344118;19;112180;-79
2021/12/07 11:55:12;;;;;;;;;;;8.10;99.90;;;;;;7348494;19;109309;-78
2021/12/07 11:57:39;;;;;;;;;;;8.20;99.90;;;;;;7350317;19;110650;-79
2021/12/07 12:00:08;;;;;;;;;;;8.20;99.90;;;;;;7345609;19;109640;-77
2021/12/07 12:02:35;;;;;;;;;;;8.20;99.90;;;;;;7345444;19;110585;-79
2021/12/07 12:05:03;;;;;;;;;;;8.30;99.90;;;;;;7346388;19;111622;-80
2021/12/07 12:07:30;;;;;;;;;;;8.30;99.90;;;;;;7349615;19;109489;-79
2021/12/07 12:09:57;;;;;;;;;;;8.30;99.90;;;;;;7347058;19;110804;-78
2021/12/07 12:12:30;;;;;;;;;;;8.30;99.90;;;;;;7348668;19;112737;-77
2021/12/07 12:15:02;;;;;;;;;;;8.20;99.90;;;;;;7345175;19;109928;-77
2021/12/07 12:17:29;;;;;;;;;;;8.10;99.90;;;;;;7346231;19;111519;-80
2021/12/07 12:20:15;;;;;;;;;;;8.10;99.90;;;;;;7349649;19;111625;-78
2021/12/07 12:22:49;;;;;;;;;;;8.10;99.90;;;;;;7346462;19;110922;-80
2021/12/07 12:25:21;;;;;;;;;;;8.00;99.90;;;;;;7345432;19;112322;-77
2021/12/07 12:27:52;;;;;;;;;;;8.00;99.90;;;;;;7346379;19;109728;-80
2021/12/07 12:30:45;;;;;;;;;;;7.90;99.90;;;;;;7345674;19;110803;-78
2021/12/07 12:33:13;;;;;;;;;;;7.90;99.90;;;;;;7342833;19;112025;-78
2021/12/07 12:35:49;;;;;;;;;;;7.90;99.90;;;;;;7347243;19;109468;-78
2021/12/07 12:38:19;;;;;;;;;;;7.90;99.90;;;;;;7343582;19;110589;-79
2021/12/07 12:41:03;;;;;;;;;;;7.90;99.90;;;;;;7346115;19;111696;-80
2021/12/07 12:43:33;;;;;;;;;;;8.00;99.90;;;;;;7347363;19;109304;-77
2021/12/07 12:46:00;;;;;;;;;;;7.90;99.90;;;;;;7344868;19;111955;-78
2021/12/07 12:48:28;;;;;;;;;;;8.00;99.90;;;;;;7344200;19;109735;-79
2021/12/07 12:50:55;;;;;;;;;;;7.90;99.90;;;;;;7341948;19;111671;-77
2021/12/07 12:53:24;;;;;;;;;;;7.80;99.90;;;;;;7345788;19;111650;-80
2021/12/07 12:55:51;;;;;;;;;;;7.80;99.90;;;;;;7342489;19;110272;-80
2021/12/07 12:58:36;;;;;;;;;;;7.80;99.90;;;;;;7346158;19;110528;-78
2021/12/07 13:01:19;;;;;;;;;;;7.80;99.90;;;;;;7338542;19;111745;-77
2021/12/07 13:04:07;;;;;;;;;;;7.70;99.90;;;;;;7340975;19;109454;-77
2021/12/07 13:06:37;;;;;;;;;;;7.70;99.90;;;;;;7347463;19;110699;-77
2021/12/07 13:09:19;;;;;;;;;;;7.60;99.90;;;;;;7343579;19;109421;-77
2021/12/07 13:11:58;;;;;;;;;;;7.60;99.90;;;;;;7343682;19;110673;-79
2021/12/07 13:14:25;;;;;;;;;;;7.60;99.90;;;;;;7342067;19;111918;-77
2021/12/07 13:17:07;;;;;;;;;;;7.70;99.90;;;;;;7346175;19;110431;-80
2021/12/07 13:19:52;;;;;;;;;;;7.60;99.90;;;;;;7342485;19;110995;-79
2021/12/07 13:22:19;;;;;;;;;;;7.60;99.90;;;;;;7346491;19;111704;-78
2021/12/07 13:24:48;;;;;;;;;;;7.50;99.90;;;;;;7342944;19;109542;-77
2021/12/07 13:27:15;;;;;;;;;;;7.50;99.90;;;;;;7350704;19;110747;-80
2021/12/07 13:29:46;;;;;;;;;;;7.50;99.90;;;;;;7342969;19;109353;-78
2021/12/07 13:32:14;;;;;;;;;;;7.50;99.90;;;;;;7344763;19;110708;-77
2021/12/07 13:34:41;;;;;;;;;;;7.40;99.90;;;;;;7342560;19;111818;-78
2021/12/07 13:37:13;;;;;;;;;;;7.40;99.90;;;;;;7344403;19;110784;-78
2021/12/07 13:39:40;;;;;;;;;;;7.40;99.90;;;;;;7343657;19;110837;-80
2021/12/07 13:42:12;;;;;;;;;;;7.40;99.90;;;;;;7340495;19;112099;-78
2021/12/07 13:44:52;;;;;;;;;;;7.40;99.90;;;;;;7345118;19;109538;-78
2021/12/07 13:47:21;;;;;;;;;;;7.40;99.90;;;;;;7342772;19;111066;-77
2021/12/07 13:49:53;;;;;;;;;;;7.40;99.90;;;;;;7349982;19;111650;-77
2021/12/07 13:52:22;;;;;;;;;;;7.40;99.90;;;;;;7340300;19;110682;-80
2021/12/07 13:54:51;;;;;;;;;;;7.30;99.90;;;;;;7344960;19;111890;-79
2021/12/07 13:57:22;;;;;;;;;;;7.20;99.90;;;;;;7341412;19;110727;-77
2021/12/07 14:00:07;;;;;;;;;;;7.10;99.90;;;;;;7345198;19;111522;-80
2021/12/07 14:02:35;;;;;;;;;;;7.10;99.90;;;;;;7342103;19;113177;-77
2021/12/07 14:05:10;;;;;;;;;;;7.10;99.90;;;;;;7344699;19;109388;-77
2021/12/07 14:07:37;;;;;;;;;;;7.10;99.90;;;;;;7340842;19;110662;-77
2021/12/07 14:10:09;;;;;;;;;;;7.10;99.90;;;;;;7343358;19;110688;-78
2021/12/07 14:12:36;;;;;;;;;;;7.00;99.90;;;;;;7349597;19;109756;-77
2021/12/07 14:15:14;;;;;;;;;;;7.00;99.90;;;;;;7342029;19;112416;-77
2021/12/07 14:17:51;;;;;;;;;;;6.90;99.90;;;;;;7343707;19;110881;-80
2021/12/07 14:20:37;;;;;;;;;;;6.90;99.90;;;;;;7341468;19;110957;-77
2021/12/07 14:23:14;;;;;;;;;;;6.90;99.90;;;;;;7344564;19;112520;-77
2021/12/07 14:25:56;;;;;;;;;;;6.80;99.90;;;;;;7340022;19;110025;-77
2021/12/07 14:28:52;;;;;;;;;;;6.80;99.90;;;;;;7344536;19;110950;-77
2021/12/07 14:31:26;;;;;;;;;;;6.80;99.90;;;;;;7341801;19;111745;-77
2021/12/07 14:33:52;;;;;;;;;;;6.70;99.90;;;;;;7341718;19;109403;-77
2021/12/07 14:36:24;;;;;;;;;;;6.70;99.90;;;;;;7350139;19;110779;-77
2021/12/07 14:38:51;;;;;;;;;;;6.70;99.90;;;;;;7341081;19;110533;-77
2021/12/07 14:41:19;;;;;;;;;;;6.70;99.90;;;;;;7343237;19;111057;-77
2021/12/07 14:43:47;;;;;;;;;;;6.60;99.90;;;;;;7345013;19;112551;-77
2021/12/07 14:46:15;;;;;;;;;;;6.70;99.90;;;;;;7350006;19;109360;-77
2021/12/07 14:48:43;;;;;;;;;;;6.60;99.90;;;;;;7346151;19;110638;-77
2021/12/07 14:51:11;;;;;;;;;;;6.60;99.90;;;;;;7349622;19;111874;-77
2021/12/07 14:53:40;;;;;;;;;;;6.60;99.90;;;;;;7345033;19;109430;-77
2021/12/07 14:56:08;;;;;;;;;;;6.60;99.90;;;;;;7349785;19;110534;-77
2021/12/07 14:58:36;;;;;;;;;;;6.50;99.90;;;;;;7352096;19;112611;-77
2021/12/07 15:01:18;;;;;;;;;;;6.50;99.90;;;;;;7349121;19;111130;-77
2021/12/07 15:03:49;;;;;;;;;;;6.50;99.90;;;;;;7348044;19;111700;-77
2021/12/07 15:06:16;;;;;;;;;;;6.50;99.90;;;;;;7348675;19;110383;-77
2021/12/07 15:08:43;;;;;;;;;;;6.50;99.90;;;;;;7349336;19;110753;-77
2021/12/07 15:11:34;;;;;;;;;;;6.50;99.90;;;;;;7345971;19;113696;-77
2021/12/07 15:14:03;;;;;;;;;;;6.50;99.90;;;;;;7349071;19;109467;-77
2021/12/07 15:16:29;;;;;;;;;;;6.40;99.90;;;;;;7345081;19;111044;-77
2021/12/07 15:18:57;;;;;;;;;;;6.40;99.90;;;;;;7347749;19;111674;-77
2021/12/07 15:21:26;;;;;;;;;;;6.40;99.90;;;;;;7352175;19;109325;-77
2021/12/07 15:23:54;;;;;;;;;;;6.40;99.90;;;;;;7349321;19;112060;-77
2021/12/07 15:26:22;;;;;;;;;;;6.50;99.90;;;;;;7346230;19;109805;-77
2021/12/07 15:28:55;;;;;;;;;;;6.40;99.90;;;;;;7348376;19;110724;-77
2021/12/07 15:31:24;;;;;;;;;;;6.40;99.90;;;;;;7345129;19;111709;-77
2021/12/07 15:33:53;;;;;;;;;;;6.40;99.90;;;;;;7348166;19;109893;-77
2021/12/07 15:36:21;;;;;;;;;;;6.40;99.90;;;;;;7349398;19;110995;-77
2021/12/07 15:38:48;;;;;;;;;;;6.40;99.90;;;;;;7346471;19;111812;-77
2021/12/07 15:41:15;;;;;;;;;;;6.40;99.90;;;;;;7353785;19;109362;-77
2021/12/07 15:43:43;;;;;;;;;;;6.40;99.90;;;;;;7344959;19;112288;-77
2021/12/07 15:46:19;;;;;;;;;;;6.30;99.90;;;;;;7349330;19;110853;-77
2021/12/07 15:48:46;;;;;;;;;;;6.40;99.90;;;;;;7344702;19;112916;-78
2021/12/07 15:51:12;;;;;;;;;;;6.30;99.90;;;;;;7348050;19;113227;-77
2021/12/07 15:53:40;;;;;;;;;;;6.30;99.90;;;;;;7345804;19;109395;-77
2021/12/07 15:56:20;;;;;;;;;;;6.30;99.90;;;;;;7345236;19;110825;-77
2021/12/07 15:58:47;;;;;;;;;;;6.30;99.90;;;;;;7345140;19;112218;-77
2021/12/07 16:01:14;;;;;;;;;;;6.30;99.90;;;;;;7346792;19;109440;-77
2021/12/07 16:03:45;;;;;;;;;;;6.30;99.90;;;;;;7353031;19;110501;-77
2021/12/07 16:06:17;;;;;;;;;;;6.30;99.90;;;;;;7344529;19;111100;-77
2021/12/07 16:08:45;;;;;;;;;;;6.30;99.90;;;;;;7348406;19;110708;-77
2021/12/07 16:11:21;;;;;;;;;;;6.20;99.90;;;;;;7342752;19;112230;-77
2021/12/07 16:13:49;;;;;;;;;;;6.20;99.90;;;;;;7346548;19;109589;-76
2021/12/07 16:16:18;;;;;;;;;;;6.30;99.90;;;;;;7342496;19;110858;-77